Time;durP1;ratioP1;P1;durP2;ratioP2;P2;SDS_P1;SDS_P2;PMS_P1;PMS_P2;Temp;Humidity;BMP_temperature;BMP_pressure;BME280_temperature;BME280_humidity;BME280_pressure;Samples;Min_cycle;Max_cycle;Signal;HPM_P1;HPM_P2
2021/06/01 08:22:40;;;;;;;16.55;9.18;;;17.50;96.10;;;;;;5097581;23;20119;-95
2021/06/01 08:25:11;;;;;;;17.45;8.10;;;17.70;95.30;;;;;;4934493;29;20056;-95
2021/06/01 08:27:38;;;;;;;20.38;8.35;;;17.80;94.50;;;;;;4933748;29;20028;-94
2021/06/01 08:30:06;;;;;;;11.70;7.22;;;17.90;94.10;;;;;;4934572;29;20028;-95
2021/06/01 08:32:32;;;;;;;11.57;7.43;;;18.00;93.60;;;;;;4933809;29;20493;-95
2021/06/01 08:34:57;;;;;;;15.32;7.90;;;18.20;93.30;;;;;;4917428;29;20094;-96
2021/06/01 08:37:25;;;;;;;12.45;7.68;;;18.40;92.30;;;;;;4914872;29;20511;-93
2021/06/01 08:39:50;;;;;;;11.70;7.07;;;18.50;91.60;;;;;;4913382;29;20032;-92
2021/06/01 08:42:16;;;;;;;14.88;7.78;;;18.70;91.30;;;;;;4913703;29;20032;-93
2021/06/01 08:44:42;;;;;;;15.40;7.75;;;18.90;91.00;;;;;;4912977;29;20028;-94
2021/06/01 08:47:10;;;;;;;14.98;8.23;;;19.10;90.50;;;;;;4913920;29;20024;-94
2021/06/01 08:49:37;;;;;;;16.00;8.40;;;19.30;89.50;;;;;;4913125;29;20056;-93
2021/06/01 10:51:55;;;;;;;18.48;10.82;;;24.80;63.70;;;;;;4889345;29;20072;-95
2021/06/01 10:54:54;;;;;;;18.35;11.13;;;24.70;63.30;;;;;;4871949;29;20029;-95
2021/06/01 10:57:20;;;;;;;16.88;10.45;;;24.70;63.90;;;;;;4863723;29;20049;-95
2021/06/01 11:02:17;;;;;;;19.50;10.43;;;24.70;62.70;;;;;;4894842;29;20036;-95
2021/06/01 11:05:16;;;;;;;20.13;9.82;;;24.80;62.70;;;;;;4876642;29;20033;-95
2021/06/01 11:07:51;;;;;;;18.45;11.15;;;25.00;62.50;;;;;;4876432;29;20088;-95
2021/06/01 11:10:46;;;;;;;17.05;11.27;;;25.20;62.00;;;;;;4875534;29;20058;-95
2021/06/01 11:13:27;;;;;;;17.40;11.02;;;25.40;60.90;;;;;;4873846;29;20028;-94
2021/06/01 11:16:00;;;;;;;22.35;12.82;;;25.50;60.20;;;;;;4873107;29;20064;-94
2021/06/01 11:21:09;;;;;;;24.58;13.18;;;25.70;61.00;;;;;;4891705;29;20033;-94
2021/06/01 11:35:28;;;;;;;26.77;15.57;;;26.10;60.10;;;;;;4902038;29;20088;-94
2021/06/01 11:38:10;;;;;;;20.63;12.57;;;26.10;59.50;;;;;;4886181;29;20040;-95
2021/06/01 11:43:19;;;;;;;21.92;13.18;;;26.10;59.30;;;;;;4906392;29;20065;-94
2021/06/01 11:51:17;;;;;;;27.77;15.73;;;26.40;59.50;;;;;;4870588;29;20408;-95
2021/06/01 11:54:08;;;;;;;28.98;14.60;;;26.50;59.40;;;;;;4855880;29;20042;-95
2021/06/01 12:11:14;;;;;;;31.15;16.83;;;26.90;58.00;;;;;;4853830;29;20060;-96
2021/06/01 12:18:57;;;;;;;25.20;12.77;;;27.30;56.50;;;;;;4852984;29;20106;-95
2021/06/01 12:21:30;;;;;;;23.52;12.48;;;27.40;56.20;;;;;;4858334;29;20034;-95
2021/06/01 12:24:15;;;;;;;24.02;13.32;;;27.40;56.00;;;;;;4857616;29;20034;-96
2021/06/01 12:32:35;;;;;;;18.83;9.52;;;27.60;54.90;;;;;;4857182;29;20090;-96
2021/06/01 12:36:21;;;;;;;15.48;9.68;;;27.50;54.80;;;;;;4856146;29;20093;-94
2021/06/01 12:43:46;;;;;;;17.20;9.37;;;27.60;55.40;;;;;;4894196;29;20055;-95
2021/06/01 13:20:41;;;;;;;16.20;10.57;;;28.20;55.00;;;;;;4894437;29;20027;-96
2021/06/01 13:31:08;;;;;;;13.52;8.35;;;27.80;55.40;;;;;;4894977;23;20454;-95
2021/06/01 13:39:10;;;;;;;16.08;8.45;;;27.40;56.40;;;;;;4922613;29;20036;-95
2021/06/01 13:47:16;;;;;;;11.10;7.88;;;27.80;56.70;;;;;;4854874;29;20273;-96
2021/06/01 14:29:59;;;;;;;10.48;6.95;;;26.90;54.60;;;;;;4913237;29;20088;-96
2021/06/01 15:30:33;;;;;;;9.95;5.70;;;26.80;55.10;;;;;;4923401;29;20038;-96
2021/06/01 16:31:40;;;;;;;8.55;5.32;;;27.00;54.10;;;;;;4918392;29;20101;-95
2021/06/01 17:05:30;;;;;;;7.78;5.38;;;25.50;56.80;;;;;;4915247;29;20055;-95
2021/06/01 17:08:46;;;;;;;10.90;5.20;;;25.50;57.00;;;;;;4899383;29;20033;-95
2021/06/01 17:11:26;;;;;;;7.80;5.35;;;25.50;57.20;;;;;;4897882;29;20036;-95
2021/06/01 17:13:58;;;;;;;10.23;5.70;;;25.50;56.80;;;;;;4899293;29;20080;-96
2021/06/01 17:16:54;;;;;;;8.88;5.60;;;25.30;56.70;;;;;;4891324;29;20028;-94
2021/06/01 17:35:15;;;;;;;6.90;4.70;;;25.10;56.50;;;;;;4909272;29;20052;-93
2021/06/01 17:37:44;;;;;;;9.27;4.47;;;25.00;56.60;;;;;;4902397;29;20037;-95
2021/06/01 17:40:13;;;;;;;6.10;4.50;;;25.00;56.70;;;;;;4895235;29;20029;-94
2021/06/01 17:42:45;;;;;;;5.72;4.20;;;24.90;56.60;;;;;;4892753;29;20305;-95
2021/06/01 17:45:15;;;;;;;9.88;5.13;;;24.80;56.60;;;;;;4888387;29;20084;-94
2021/06/01 17:47:52;;;;;;;4.80;3.80;;;24.70;56.70;;;;;;4905197;29;20077;-95
2021/06/01 17:50:18;;;;;;;7.35;4.75;;;24.70;56.80;;;;;;4873969;29;20293;-95
2021/06/01 17:52:49;;;;;;;8.48;4.13;;;24.70;56.80;;;;;;4870359;29;20025;-95
2021/06/01 17:55:16;;;;;;;7.82;5.20;;;24.60;56.90;;;;;;4871420;29;20035;-94
2021/06/01 17:57:44;;;;;;;6.57;4.40;;;24.50;56.80;;;;;;4886456;29;20044;-94
2021/06/01 18:00:11;;;;;;;8.52;4.47;;;24.40;56.50;;;;;;4870708;29;20116;-94
2021/06/01 18:02:38;;;;;;;8.98;4.68;;;24.30;56.60;;;;;;4870752;29;20028;-94
2021/06/01 18:05:06;;;;;;;10.20;4.60;;;24.10;56.60;;;;;;4870500;29;20119;-93
2021/06/01 18:07:39;;;;;;;7.43;3.90;;;24.00;56.80;;;;;;4870972;29;20033;-94
2021/06/01 19:02:11;;;;;;;9.98;4.15;;;22.20;59.80;;;;;;4904602;29;20044;-93
2021/06/01 19:51:46;;;;;;;9.80;3.75;;;20.40;62.70;;;;;;4910605;29;20039;-93
2021/06/01 19:54:19;;;;;;;7.40;3.25;;;20.30;62.80;;;;;;4892774;29;20109;-95
2021/06/01 19:56:46;;;;;;;10.50;3.83;;;20.20;63.00;;;;;;4889055;29;20024;-94
2021/06/01 19:59:16;;;;;;;6.07;3.70;;;20.20;63.50;;;;;;4888841;29;20052;-94
2021/06/01 20:01:43;;;;;;;5.50;3.60;;;20.10;63.40;;;;;;4891054;29;20025;-94
2021/06/01 20:04:11;;;;;;;6.80;4.13;;;20.00;63.50;;;;;;4891748;29;20036;-95
2021/06/01 20:06:38;;;;;;;5.68;3.83;;;20.00;63.80;;;;;;4889574;29;20494;-94
2021/06/01 20:09:05;;;;;;;14.13;4.00;;;19.90;63.70;;;;;;4889723;29;20058;-93
2021/06/01 20:11:34;;;;;;;10.73;4.25;;;19.90;64.10;;;;;;4889963;29;20033;-93
2021/06/01 20:13:59;;;;;;;6.32;3.60;;;19.80;64.20;;;;;;4885564;29;20057;-94
2021/06/01 20:16:25;;;;;;;9.38;3.70;;;19.70;64.30;;;;;;4884141;29;20013;-93
2021/06/01 20:18:55;;;;;;;9.57;3.72;;;19.50;64.70;;;;;;4889032;29;20049;-94
2021/06/01 20:21:22;;;;;;;6.37;3.53;;;19.40;65.00;;;;;;4892160;29;20025;-94
2021/06/01 20:23:55;;;;;;;8.00;3.75;;;19.40;65.40;;;;;;4889285;29;20065;-95
2021/06/01 20:26:23;;;;;;;5.88;3.72;;;19.40;65.60;;;;;;4877893;29;20096;-93
2021/06/01 20:29:02;;;;;;;7.35;4.18;;;19.30;65.70;;;;;;4871854;29;20100;-94
2021/06/01 20:31:33;;;;;;;7.63;4.07;;;19.30;65.90;;;;;;4875095;29;20067;-94
2021/06/01 20:34:03;;;;;;;;;;;19.30;65.90;;;;;;4886234;29;20021;-93
2021/06/01 20:36:30;;;;;;;8.48;4.45;;;19.10;65.80;;;;;;4902792;29;19918;-95
2021/06/01 20:38:56;;;;;;;9.07;3.88;;;19.10;65.90;;;;;;4859479;29;20140;-94
2021/06/01 20:41:22;;;;;;;12.45;4.50;;;19.00;66.10;;;;;;4895261;29;20084;-94
2021/06/01 20:43:48;;;;;;;5.97;3.35;;;18.90;66.30;;;;;;4889078;29;20043;-94
2021/06/01 20:46:15;;;;;;;10.70;4.07;;;18.90;66.30;;;;;;4901004;29;20029;-93
2021/06/01 20:48:41;;;;;;;10.30;3.70;;;18.80;66.60;;;;;;4871726;29;20116;-95
2021/06/01 20:51:07;;;;;;;8.07;4.20;;;18.80;67.00;;;;;;4870480;29;20084;-96
2021/06/01 20:53:33;;;;;;;7.45;4.47;;;18.80;67.00;;;;;;4856677;29;20041;-95
2021/06/01 20:55:59;;;;;;;8.48;4.30;;;18.80;67.10;;;;;;4870911;29;20032;-94
2021/06/01 20:58:37;;;;;;;10.80;4.18;;;18.70;66.90;;;;;;4872779;29;20077;-96
2021/06/01 21:01:04;;;;;;;9.05;4.07;;;18.70;67.70;;;;;;4883761;29;20033;-93
2021/06/01 21:03:31;;;;;;;6.68;4.63;;;18.70;68.00;;;;;;4878034;29;20025;-93
2021/06/01 21:06:04;;;;;;;9.93;4.60;;;18.60;68.60;;;;;;4875784;29;20462;-93
2021/06/01 21:08:31;;;;;;;9.50;4.60;;;18.60;68.40;;;;;;4868250;29;20033;-93
2021/06/01 21:11:05;;;;;;;8.55;4.70;;;18.70;68.30;;;;;;4864404;29;20057;-94
2021/06/01 21:13:31;;;;;;;6.03;4.22;;;18.60;68.00;;;;;;4881731;29;20109;-94
2021/06/01 21:15:58;;;;;;;12.45;4.45;;;18.60;68.20;;;;;;4876341;29;20040;-94
2021/06/01 21:18:25;;;;;;;8.20;4.13;;;18.60;68.50;;;;;;4875610;29;20042;-94
2021/06/01 21:20:51;;;;;;;8.02;4.63;;;18.50;68.90;;;;;;4877726;29;21210;-93
2021/06/01 21:23:20;;;;;;;10.75;5.32;;;18.50;68.60;;;;;;4873163;29;20037;-95
2021/06/01 21:25:46;;;;;;;10.63;4.97;;;18.50;68.60;;;;;;4882180;29;20035;-94
2021/06/01 21:28:12;;;;;;;9.05;4.88;;;18.50;68.50;;;;;;4869876;29;20462;-94
2021/06/01 21:30:38;;;;;;;9.63;5.43;;;18.50;68.60;;;;;;4853780;29;20034;-95
2021/06/01 21:33:13;;;;;;;10.23;5.80;;;18.50;68.70;;;;;;4872035;29;20054;-94
2021/06/01 21:35:49;;;;;;;9.13;4.95;;;18.40;68.70;;;;;;4875368;29;20029;-94
2021/06/01 21:38:22;;;;;;;9.85;5.60;;;18.40;69.20;;;;;;4874701;29;20045;-93
2021/06/01 21:40:48;;;;;;;9.80;5.53;;;18.30;69.10;;;;;;4878246;29;20054;-94
2021/06/01 21:43:14;;;;;;;8.85;5.40;;;18.20;69.10;;;;;;4870387;29;20033;-94
2021/06/01 21:45:45;;;;;;;8.50;5.15;;;18.10;69.50;;;;;;4878177;29;20398;-93
2021/06/01 21:48:13;;;;;;;11.43;5.57;;;18.00;69.70;;;;;;4878330;29;20029;-93
2021/06/01 21:50:45;;;;;;;12.02;5.75;;;18.00;69.90;;;;;;4868549;29;20064;-94
2021/06/01 21:53:17;;;;;;;9.73;5.72;;;18.00;70.10;;;;;;4875625;29;20041;-95
2021/06/01 21:55:48;;;;;;;13.93;5.55;;;17.90;70.30;;;;;;4881686;29;20049;-94
2021/06/01 21:58:18;;;;;;;13.65;6.50;;;17.80;70.50;;;;;;4868836;29;20049;-95
2021/06/01 22:00:52;;;;;;;10.60;6.18;;;17.80;70.70;;;;;;4885792;29;20036;-95
2021/06/01 22:03:22;;;;;;;10.65;6.28;;;17.80;70.90;;;;;;4859924;29;20104;-93
2021/06/01 22:05:51;;;;;;;;;;;17.70;71.00;;;;;;4885642;29;20081;-96
2021/06/01 22:08:18;;;;;;;9.13;5.68;;;17.70;71.10;;;;;;4869692;29;19908;-94
2021/06/01 22:10:47;;;;;;;7.88;5.63;;;17.60;71.10;;;;;;4870276;29;20029;-95
2021/06/01 22:13:17;;;;;;;17.38;6.80;;;17.50;71.40;;;;;;4882972;29;20494;-94
2021/06/01 22:26:56;;;;;;;11.50;5.95;;;17.20;73.20;;;;;;4896206;23;20608;-95
2021/06/01 22:29:23;;;;;;;11.15;6.65;;;17.10;73.30;;;;;;4898021;29;20532;-93
2021/06/01 22:31:57;;;;;;;16.17;6.22;;;17.10;73.50;;;;;;4874780;29;20439;-96
2021/06/01 22:34:24;;;;;;;11.20;5.97;;;17.00;73.50;;;;;;4897852;29;20056;-95
2021/06/01 22:36:50;;;;;;;9.32;6.15;;;17.00;73.60;;;;;;4877503;29;20029;-95
2021/06/01 22:39:17;;;;;;;10.82;6.20;;;16.90;73.70;;;;;;4896261;29;20109;-96
2021/06/01 22:41:44;;;;;;;11.60;6.05;;;16.80;74.00;;;;;;4900144;29;20055;-94
2021/06/01 22:44:11;;;;;;;11.88;5.65;;;16.70;74.20;;;;;;4887053;29;20055;-93
2021/06/01 22:46:37;;;;;;;15.45;6.25;;;16.60;74.40;;;;;;4890932;29;20028;-93
2021/06/01 22:49:08;;;;;;;10.90;6.40;;;16.60;74.60;;;;;;4890213;29;20478;-93
2021/06/01 22:51:37;;;;;;;13.10;6.50;;;16.60;74.80;;;;;;4891749;29;20028;-93
2021/06/01 22:54:11;;;;;;;15.30;7.43;;;16.50;75.00;;;;;;4884328;29;20032;-93
2021/06/01 22:56:42;;;;;;;10.77;6.25;;;16.50;75.30;;;;;;4886228;29;20027;-93
2021/06/01 22:59:24;;;;;;;13.70;6.10;;;16.40;75.50;;;;;;4888959;29;20036;-94
2021/06/01 23:01:51;;;;;;;11.88;6.38;;;16.40;75.60;;;;;;4888783;29;20041;-91
2021/06/01 23:04:21;;;;;;;15.07;7.55;;;16.30;75.70;;;;;;4905808;29;20534;-93
2021/06/01 23:06:48;;;;;;;12.13;7.10;;;16.20;76.00;;;;;;4889130;29;20033;-93
2021/06/01 23:09:15;;;;;;;13.95;7.93;;;16.10;76.30;;;;;;4888792;29;20033;-93
2021/06/01 23:11:44;;;;;;;12.68;6.95;;;16.10;76.70;;;;;;4873345;29;20056;-93
2021/06/01 23:14:16;;;;;;;14.63;7.43;;;16.00;76.90;;;;;;4888465;29;20119;-93
2021/06/01 23:16:43;;;;;;;14.90;7.82;;;15.90;77.20;;;;;;4887683;29;20049;-94
2021/06/01 23:19:13;;;;;;;16.15;8.13;;;15.80;77.50;;;;;;4888001;29;20188;-93
2021/06/01 23:21:42;;;;;;;14.85;7.97;;;15.80;77.70;;;;;;4887874;29;20025;-93
2021/06/01 23:24:10;;;;;;;14.40;8.13;;;15.60;77.90;;;;;;4887151;29;20037;-93
2021/06/01 23:26:36;;;;;;;11.63;6.90;;;15.60;78.20;;;;;;4887151;29;20061;-93
2021/06/01 23:29:06;;;;;;;12.73;7.93;;;15.60;78.60;;;;;;4886641;29;20032;-92
2021/06/01 23:31:32;;;;;;;17.15;8.63;;;15.50;78.90;;;;;;4886778;29;20088;-93
2021/06/01 23:33:58;;;;;;;12.88;8.15;;;15.50;79.10;;;;;;4886937;29;20040;-93
2021/06/01 23:36:33;;;;;;;16.23;8.55;;;15.40;79.30;;;;;;4886692;29;20021;-92
2021/06/01 23:39:23;;;;;;;15.88;8.38;;;15.40;79.70;;;;;;4886403;29;20040;-93
2021/06/01 23:41:51;;;;;;;18.25;8.85;;;15.30;80.00;;;;;;4886762;29;20061;-95
2021/06/01 23:44:17;;;;;;;21.92;9.75;;;15.30;80.20;;;;;;4886704;29;20029;-94
2021/06/01 23:46:45;;;;;;;17.38;9.18;;;15.20;80.40;;;;;;4886301;29;20029;-94
2021/06/01 23:51:57;;;;;;;18.40;10.05;;;15.20;81.10;;;;;;4903382;29;20509;-94
2021/06/01 23:54:24;;;;;;;17.58;9.23;;;15.10;81.30;;;;;;4885980;29;20028;-94
2021/06/01 23:56:50;;;;;;;17.67;8.85;;;15.00;81.50;;;;;;4886445;29;20028;-93
2021/06/01 23:59:19;;;;;;;15.70;9.25;;;15.00;81.90;;;;;;4886289;29;20052;-93
